createdAt,value
2018-03-03T00:01:32.818Z,99588.63
2018-03-03T00:04:01.146Z,99587.37
2018-03-03T00:06:29.495Z,99586.91
2018-03-03T00:08:57.814Z,99578.38
2018-03-03T00:11:26.157Z,99580.42
2018-03-03T00:13:54.482Z,99579.55
2018-03-03T00:16:22.826Z,99566.66
2018-03-03T00:18:51.154Z,99564.61
2018-03-03T00:21:19.507Z,99560.70
2018-03-03T00:23:47.831Z,99558.97
2018-03-03T00:26:16.168Z,99557.66
2018-03-03T00:28:44.498Z,99543.13
2018-03-03T00:31:12.840Z,99543.55
2018-03-03T00:33:41.165Z,99552.11
2018-03-03T00:36:09.515Z,99549.95
2018-03-03T00:38:37.842Z,99553.38
2018-03-03T00:41:06.197Z,99548.65
2018-03-03T00:43:34.510Z,99543.81
2018-03-03T00:46:02.923Z,99550.72
2018-03-03T00:48:31.235Z,99552.86
2018-03-03T00:50:59.585Z,99552.42
2018-03-03T00:53:27.914Z,99554.02
2018-03-03T00:55:56.258Z,99550.61
2018-03-03T00:58:24.590Z,99541.52
2018-03-03T01:00:52.920Z,99540.63
2018-03-03T01:03:21.250Z,99541.98
2018-03-03T01:05:49.597Z,99541.55
2018-03-03T01:08:17.930Z,99552.23
2018-03-03T01:10:46.279Z,99549.64
2018-03-03T01:13:14.602Z,99550.09
2018-03-03T01:15:42.946Z,99544.08
2018-03-03T01:18:11.265Z,99559.05
2018-03-03T01:20:39.615Z,99550.03
2018-03-03T01:23:07.937Z,99549.21
2018-03-03T01:25:36.283Z,99544.03
2018-03-03T01:28:04.610Z,99544.44
2018-03-03T01:30:32.954Z,99545.76
2018-03-03T01:33:01.277Z,99540.62
2018-03-03T01:35:29.621Z,99537.14
2018-03-03T01:37:57.954Z,99538.83
2018-03-03T01:40:26.307Z,99539.72
2018-03-03T01:42:54.634Z,99537.19
2018-03-03T01:45:22.987Z,99537.13
2018-03-03T01:47:51.310Z,99534.09
2018-03-03T01:50:19.658Z,99528.89
2018-03-03T01:52:47.986Z,99532.74
2018-03-03T01:55:16.334Z,99533.11
2018-03-03T01:57:44.666Z,99531.86
2018-03-03T02:00:12.990Z,99527.11
2018-03-03T02:02:41.341Z,99525.89
2018-03-03T02:05:09.666Z,99525.44
2018-03-03T02:07:38.026Z,99513.45
2018-03-03T02:10:06.352Z,99512.59
2018-03-03T02:12:34.693Z,99515.22
2018-03-03T02:15:03.021Z,99509.58
2018-03-03T02:17:31.360Z,99512.59
2018-03-03T02:19:59.690Z,99511.27
2018-03-03T02:22:28.042Z,99501.38
2018-03-03T02:24:56.370Z,99502.27
2018-03-03T02:27:24.714Z,99503.08
2018-03-03T02:29:53.045Z,99509.47
2018-03-03T02:32:21.387Z,99506.87
2018-03-03T02:34:49.710Z,99508.22
2018-03-03T02:37:18.073Z,99507.77
2018-03-03T02:39:46.400Z,99503.50
2018-03-03T02:42:14.742Z,99501.78
2018-03-03T02:44:43.069Z,99505.59
2018-03-03T02:47:11.461Z,99503.91
2018-03-03T02:49:39.782Z,99506.50
2018-03-03T02:52:08.142Z,99512.48
2018-03-03T02:54:36.468Z,99512.92
2018-03-03T02:57:04.815Z,99503.92
2018-03-03T02:59:33.134Z,99506.45
2018-03-03T03:02:01.483Z,99506.41
2018-03-03T03:04:29.822Z,99502.05
2018-03-03T03:06:58.175Z,99502.65
2018-03-03T03:09:26.502Z,99499.16
2018-03-03T03:11:54.855Z,99498.42
2018-03-03T03:14:23.181Z,99491.53
2018-03-03T03:16:51.531Z,99489.30
2018-03-03T03:19:19.858Z,99488.45
2018-03-03T03:21:48.209Z,99479.81
2018-03-03T03:24:16.534Z,99487.56
2018-03-03T03:26:44.885Z,99492.22
2018-03-03T03:29:13.205Z,99485.78
2018-03-03T03:31:41.555Z,99481.87
2018-03-03T03:34:09.890Z,99476.78
2018-03-03T03:36:38.230Z,99476.33
2018-03-03T03:39:06.553Z,99478.53
2018-03-03T03:41:34.899Z,99468.61
2018-03-03T03:44:03.217Z,99477.17
2018-03-03T03:46:31.574Z,99476.33
2018-03-03T03:48:59.899Z,99475.87
2018-03-03T03:51:28.246Z,99473.70
2018-03-03T03:53:56.578Z,99470.26
2018-03-03T03:56:24.930Z,99480.08
2018-03-03T03:58:53.259Z,99476.56
2018-03-03T04:01:21.582Z,99478.22
2018-03-03T04:03:49.936Z,99465.30
2018-03-03T04:06:18.257Z,99479.00
2018-03-03T04:08:46.642Z,99475.96
2018-03-03T04:11:14.970Z,99492.25
2018-03-03T04:13:43.316Z,99481.17
2018-03-03T04:16:11.642Z,99480.26
2018-03-03T04:18:39.990Z,99482.39
2018-03-03T04:21:08.318Z,99477.20
2018-03-03T04:23:36.677Z,99471.20
2018-03-03T04:26:05.001Z,99464.30
2018-03-03T04:28:33.355Z,99471.20
2018-03-03T04:31:01.686Z,99483.25
2018-03-03T04:33:30.764Z,99472.86
2018-03-03T04:35:59.089Z,99477.58
2018-03-03T04:38:27.438Z,99462.98
2018-03-03T04:40:55.778Z,99469.81
2018-03-03T04:43:24.142Z,99466.82
2018-03-03T04:45:52.474Z,99469.45
2018-03-03T04:48:20.928Z,99463.48
2018-03-03T04:50:49.242Z,99468.97
2018-03-03T04:53:17.594Z,99467.44
2018-03-03T04:55:45.922Z,99468.27
2018-03-03T04:58:14.270Z,99455.73
2018-03-03T05:00:44.959Z,99460.49
2018-03-03T05:03:31.054Z,99460.87
2018-03-03T05:05:59.731Z,99458.61
2018-03-03T05:08:33.513Z,99453.17
2018-03-03T05:11:01.857Z,99457.81
2018-03-03T05:13:33.741Z,99455.34
2018-03-03T05:16:07.659Z,99454.02
2018-03-03T05:18:41.734Z,99457.41
2018-03-03T05:24:22.737Z,99457.88
2018-03-03T05:26:56.638Z,99453.48
2018-03-03T05:32:48.530Z,99438.58
2018-03-03T05:35:33.670Z,99452.27
2018-03-03T05:41:22.506Z,99453.21
2018-03-03T05:44:02.357Z,99443.30
2018-03-03T05:49:39.301Z,99441.55
2018-03-03T05:52:08.426Z,99437.64
2018-03-03T05:54:42.332Z,99434.67
2018-03-03T05:57:28.329Z,99435.52
2018-03-03T06:00:02.262Z,99436.37
2018-03-03T06:02:36.250Z,99432.38
2018-03-03T06:05:10.270Z,99429.43
2018-03-03T06:07:42.622Z,99432.09
2018-03-03T06:10:12.777Z,99437.56
2018-03-03T06:12:41.130Z,99426.45
2018-03-03T06:15:09.453Z,99431.52
2018-03-03T06:17:37.777Z,99430.73
2018-03-03T06:20:06.118Z,99434.63
2018-03-03T06:22:34.446Z,99427.75
2018-03-03T06:25:02.799Z,99431.16
2018-03-03T06:27:31.119Z,99433.28
2018-03-03T06:29:59.461Z,99434.99
2018-03-03T06:32:27.786Z,99434.62
2018-03-03T06:34:56.142Z,99437.63
2018-03-03T06:37:24.466Z,99445.70
2018-03-03T06:39:52.813Z,99449.16
2018-03-03T06:42:21.138Z,99449.11
2018-03-03T06:44:49.482Z,99449.57
2018-03-03T06:47:17.802Z,99455.28
2018-03-03T06:49:46.145Z,99455.73
2018-03-03T06:52:14.469Z,99449.65
2018-03-03T06:54:42.814Z,99452.33
2018-03-03T06:57:11.142Z,99449.23
2018-03-03T06:59:39.486Z,99452.20
2018-03-03T07:02:07.838Z,99450.11
2018-03-03T07:04:36.193Z,99447.13
2018-03-03T07:07:04.517Z,99445.88
2018-03-03T07:09:32.861Z,99453.23
2018-03-03T07:12:01.186Z,99457.89
2018-03-03T07:14:31.894Z,99453.25
2018-03-03T07:17:00.218Z,99454.61
2018-03-03T07:19:28.563Z,99469.20
2018-03-03T07:21:56.890Z,99462.78
2018-03-03T07:24:25.239Z,99467.94
2018-03-03T07:26:53.556Z,99464.95
2018-03-03T07:29:21.901Z,99465.87
2018-03-03T07:31:50.231Z,99455.53
2018-03-03T07:34:18.582Z,99457.32
2018-03-03T07:36:46.906Z,99456.05
2018-03-03T07:39:15.265Z,99454.47
2018-03-03T07:41:43.591Z,99458.26
2018-03-03T07:44:11.939Z,99456.58
2018-03-03T07:46:40.273Z,99462.20
2018-03-03T07:49:08.616Z,99454.48
2018-03-03T07:51:36.934Z,99453.63
2018-03-03T07:54:05.278Z,99458.36
2018-03-03T07:56:45.521Z,99467.43
2018-03-03T07:59:13.870Z,99467.42
2018-03-03T08:01:42.198Z,99453.64
2018-03-03T08:04:10.546Z,99460.12
2018-03-03T08:06:38.869Z,99456.70
2018-03-03T08:09:07.226Z,99460.19
2018-03-03T08:11:35.572Z,99464.93
2018-03-03T08:14:04.617Z,99455.13
2018-03-03T08:16:33.123Z,99462.03
2018-03-03T08:19:01.472Z,99456.47
2018-03-03T08:21:29.801Z,99455.13
2018-03-03T08:23:58.155Z,99463.84
2018-03-03T08:26:26.482Z,99470.75
2018-03-03T08:28:54.809Z,99473.36
2018-03-03T08:31:23.305Z,99474.66
2018-03-03T08:33:51.722Z,99471.29
2018-03-03T08:36:20.065Z,99476.44
2018-03-03T08:38:48.419Z,99473.88
2018-03-03T08:41:17.010Z,99473.86
2018-03-03T08:43:45.334Z,99470.92
2018-03-03T08:46:13.686Z,99470.56
2018-03-03T08:48:42.013Z,99469.76
2018-03-03T08:51:10.366Z,99471.03
2018-03-03T08:53:38.690Z,99469.75
2018-03-03T08:56:07.978Z,99468.05
2018-03-03T08:58:36.306Z,99465.09
2018-03-03T09:01:04.658Z,99469.42
2018-03-03T09:03:32.986Z,99462.53
2018-03-03T09:06:01.338Z,99468.59
2018-03-03T09:08:30.854Z,99475.48
2018-03-03T09:10:59.492Z,99477.63
2018-03-03T09:13:28.323Z,99473.30
2018-03-03T09:15:56.708Z,99472.47
2018-03-03T09:18:25.029Z,99464.29
2018-03-03T09:20:53.381Z,99465.19
2018-03-03T09:23:21.729Z,99479.81
2018-03-03T09:25:50.063Z,99465.18
2018-03-03T09:28:18.390Z,99478.10
2018-03-03T09:30:46.734Z,99475.48
2018-03-03T09:33:15.140Z,99463.45
2018-03-03T09:35:43.486Z,99478.52
2018-03-03T09:38:11.829Z,99470.33
2018-03-03T09:40:40.170Z,99477.67
2018-03-03T09:43:08.506Z,99464.30
2018-03-03T09:45:36.853Z,99469.91
2018-03-03T09:48:05.173Z,99476.35
2018-03-03T09:50:33.535Z,99500.92
2018-03-03T09:53:02.875Z,99480.23
2018-03-03T09:55:31.226Z,99472.93
2018-03-03T09:57:59.559Z,99469.90
2018-03-03T10:00:27.909Z,99472.91
2018-03-03T10:02:56.287Z,99464.72
2018-03-03T10:05:24.630Z,99468.58
2018-03-03T10:07:52.961Z,99460.82
2018-03-03T10:10:21.339Z,99456.91
2018-03-03T10:12:49.730Z,99462.09
2018-03-03T10:15:18.080Z,99464.62
2018-03-03T10:17:46.414Z,99463.34
2018-03-03T10:20:14.881Z,99461.14
2018-03-03T10:22:43.241Z,99467.21
2018-03-03T10:25:11.691Z,99473.64
2018-03-03T10:27:40.062Z,99465.87
2018-03-03T10:30:08.396Z,99474.06
2018-03-03T10:32:37.440Z,99465.89
2018-03-03T10:35:05.809Z,99469.30
2018-03-03T10:37:34.201Z,99476.62
2018-03-03T10:40:02.537Z,99469.72
2018-03-03T10:42:30.984Z,99467.88
2018-03-03T10:44:59.335Z,99483.36
2018-03-03T10:47:27.674Z,99470.86
2018-03-03T10:49:56.022Z,99471.24
2018-03-03T10:52:24.378Z,99460.86
2018-03-03T10:54:52.705Z,99464.72
2018-03-03T10:57:21.073Z,99468.91
2018-03-03T10:59:49.423Z,99470.42
2018-03-03T11:02:17.808Z,99473.44
2018-03-03T11:04:46.155Z,99464.80
2018-03-03T11:07:14.519Z,99467.28
2018-03-03T11:09:42.863Z,99472.30
2018-03-03T11:12:12.098Z,99450.53
2018-03-03T11:14:40.631Z,99462.36
2018-03-03T11:17:09.018Z,99465.81
2018-03-03T11:19:37.351Z,99465.23
2018-03-03T11:22:05.723Z,99454.86
2018-03-03T11:24:34.058Z,99454.43
2018-03-03T11:27:02.416Z,99454.89
2018-03-03T11:29:30.738Z,99447.64
2018-03-03T11:31:59.830Z,99456.86
2018-03-03T11:34:28.170Z,99449.81
2018-03-03T11:36:56.524Z,99450.84
2018-03-03T11:39:24.850Z,99455.40
2018-03-03T11:41:53.216Z,99452.59
2018-03-03T11:44:21.533Z,99443.66
2018-03-03T11:46:49.894Z,99444.84
2018-03-03T11:49:18.229Z,99451.89
2018-03-03T11:51:47.375Z,99448.34
2018-03-03T11:54:15.778Z,99445.27
2018-03-03T11:56:44.131Z,99439.13
2018-03-03T11:59:12.462Z,99435.31
2018-03-03T12:01:40.817Z,99436.22
2018-03-03T12:04:09.165Z,99438.34
2018-03-03T12:06:37.499Z,99442.12
2018-03-03T12:09:05.857Z,99435.66
2018-03-03T12:11:34.225Z,99447.39
2018-03-03T12:14:02.570Z,99429.20
2018-03-03T12:16:30.901Z,99429.30
2018-03-03T12:18:59.249Z,99433.72
2018-03-03T12:21:27.578Z,99434.11
2018-03-03T12:23:55.933Z,99437.48
2018-03-03T12:26:25.255Z,99437.05
2018-03-03T12:28:53.610Z,99437.98
2018-03-03T12:31:21.936Z,99441.48
2018-03-03T12:33:50.299Z,99436.67
2018-03-03T12:36:18.626Z,99447.13
2018-03-03T12:38:46.977Z,99435.95
2018-03-03T12:41:15.318Z,99430.59
2018-03-03T12:43:43.792Z,99425.28
2018-03-03T12:46:13.013Z,99424.52
2018-03-03T12:48:41.364Z,99430.48
2018-03-03T12:51:09.702Z,99429.08
2018-03-03T12:53:38.063Z,99414.81
2018-03-03T12:56:06.390Z,99412.92
2018-03-03T12:58:34.789Z,99412.05
2018-03-03T13:01:03.074Z,99414.55
2018-03-03T13:03:31.418Z,99413.63
2018-03-03T13:06:00.726Z,99412.53
2018-03-03T13:08:29.077Z,99414.21
2018-03-03T13:10:57.405Z,99410.87
2018-03-03T13:13:25.762Z,99402.88
2018-03-03T13:15:54.099Z,99408.47
2018-03-03T13:18:22.450Z,99412.11
2018-03-03T13:20:50.777Z,99411.94
2018-03-03T13:23:19.130Z,99399.80
2018-03-03T13:25:47.454Z,99404.02
2018-03-03T13:28:15.806Z,99397.47
2018-03-03T13:30:44.142Z,99405.48
2018-03-03T13:33:12.502Z,99407.32
2018-03-03T13:35:40.854Z,99399.87
2018-03-03T13:38:09.202Z,99402.91
2018-03-03T13:40:37.530Z,99408.73
2018-03-03T13:43:05.882Z,99411.23
2018-03-03T13:45:34.223Z,99392.14
2018-03-03T13:48:02.593Z,99416.81
2018-03-03T13:50:30.914Z,99406.82
2018-03-03T13:52:59.265Z,99406.16
2018-03-03T13:55:27.593Z,99408.19
2018-03-03T13:57:55.949Z,99396.88
2018-03-03T14:00:24.275Z,99399.16
2018-03-03T14:02:52.631Z,99397.42
2018-03-03T14:05:20.970Z,99387.75
2018-03-03T14:07:49.293Z,99391.28
2018-03-03T14:10:17.646Z,99394.67
2018-03-03T14:12:46.021Z,99385.02
2018-03-03T14:15:14.369Z,99391.08
2018-03-03T14:17:42.702Z,99385.06
2018-03-03T14:20:11.055Z,99387.93
2018-03-03T14:22:39.381Z,99385.94
2018-03-03T14:25:07.733Z,99383.20
2018-03-03T14:27:36.058Z,99380.34
2018-03-03T14:30:04.430Z,99386.18
2018-03-03T14:32:32.758Z,99385.19
2018-03-03T14:35:01.113Z,99395.66
2018-03-03T14:37:29.461Z,99389.22
2018-03-03T14:39:57.825Z,99389.46
2018-03-03T14:42:26.150Z,99383.41
2018-03-03T14:44:54.497Z,99385.98
2018-03-03T14:47:22.827Z,99395.73
2018-03-03T14:49:51.224Z,99392.23
2018-03-03T14:52:19.845Z,99394.78
2018-03-03T14:54:48.194Z,99389.51
2018-03-03T14:57:16.530Z,99396.28
2018-03-03T14:59:44.875Z,99400.68
2018-03-03T15:02:13.201Z,99392.81
2018-03-03T15:04:41.553Z,99399.83
2018-03-03T15:07:09.874Z,99403.67
2018-03-03T15:09:38.221Z,99403.35
2018-03-03T15:12:06.706Z,99393.81
2018-03-03T15:14:35.099Z,99404.11
2018-03-03T15:17:03.441Z,99399.34
2018-03-03T15:19:31.946Z,99405.05
2018-03-03T15:22:00.277Z,99402.36
2018-03-03T15:24:28.622Z,99410.95
2018-03-03T15:26:56.950Z,99404.53
2018-03-03T15:29:25.293Z,99411.73
2018-03-03T15:31:53.631Z,99412.67
2018-03-03T15:34:21.974Z,99405.16
2018-03-03T15:36:50.302Z,99406.84
2018-03-03T15:39:18.678Z,99409.58
2018-03-03T15:41:46.994Z,99408.39
2018-03-03T15:44:15.335Z,99412.04
2018-03-03T15:46:43.681Z,99410.11
2018-03-03T15:49:13.107Z,99404.09
2018-03-03T15:51:41.446Z,99406.33
2018-03-03T15:54:09.802Z,99403.09
2018-03-03T15:56:38.145Z,99406.39
2018-03-03T15:59:06.506Z,99404.58
2018-03-03T16:01:34.844Z,99405.89
2018-03-03T16:04:03.207Z,99410.61
2018-03-03T16:06:31.534Z,99407.20
2018-03-03T16:08:59.886Z,99407.59
2018-03-03T16:11:28.236Z,99408.89
2018-03-03T16:13:56.586Z,99412.84
2018-03-03T16:16:24.968Z,99413.00
2018-03-03T16:18:53.326Z,99413.33
2018-03-03T16:21:21.686Z,99418.86
2018-03-03T16:23:50.018Z,99413.84
2018-03-03T16:26:19.302Z,99416.88
2018-03-03T16:28:47.634Z,99415.14
2018-03-03T16:31:16.037Z,99418.22
2018-03-03T16:33:44.378Z,99423.80
2018-03-03T16:36:13.735Z,99423.74
2018-03-03T16:38:42.101Z,99419.78
2018-03-03T16:41:10.439Z,99426.03
2018-03-03T16:43:38.769Z,99429.44
2018-03-03T16:46:07.114Z,99430.48
2018-03-03T16:48:35.446Z,99434.64
2018-03-03T16:51:03.797Z,99436.81
2018-03-03T16:53:32.122Z,99429.89
2018-03-03T16:56:01.510Z,99438.44
2018-03-03T16:58:29.907Z,99431.56
2018-03-03T17:00:58.238Z,99439.67
2018-03-03T17:03:26.627Z,99433.98
2018-03-03T17:05:55.139Z,99436.50
2018-03-03T17:08:24.306Z,99438.07
2018-03-03T17:10:52.658Z,99443.70
2018-03-03T17:13:20.990Z,99446.64
2018-03-03T17:15:49.337Z,99456.22
2018-03-03T17:18:17.682Z,99454.06
2018-03-03T17:20:46.030Z,99451.41
2018-03-03T17:23:14.395Z,99470.55
2018-03-03T17:25:42.726Z,99461.72
2018-03-03T17:28:11.093Z,99461.17
2018-03-03T17:30:39.437Z,99470.13
2018-03-03T17:33:07.802Z,99471.31
2018-03-03T17:35:36.138Z,99467.24
2018-03-03T17:38:04.461Z,99467.09
2018-03-03T17:40:32.817Z,99472.23
2018-03-03T17:43:01.186Z,99463.66
2018-03-03T17:45:29.545Z,99463.41
2018-03-03T17:47:57.882Z,99463.39
2018-03-03T17:50:26.229Z,99469.15
2018-03-03T17:52:54.579Z,99471.25
2018-03-03T17:55:22.922Z,99466.71
2018-03-03T17:57:51.318Z,99484.00
2018-03-03T18:00:19.778Z,99485.02
2018-03-03T18:02:48.106Z,99479.76
2018-03-03T18:05:16.502Z,99488.06
2018-03-03T18:07:44.826Z,99479.11
2018-03-03T18:10:13.198Z,99477.52
2018-03-03T18:12:41.526Z,99476.44
2018-03-03T18:15:09.869Z,99473.64
2018-03-03T18:17:38.223Z,99475.52
2018-03-03T18:20:06.550Z,99464.78
2018-03-03T18:22:35.186Z,99464.28
2018-03-03T18:25:04.894Z,99473.33
2018-03-03T18:27:33.246Z,99461.79
2018-03-03T18:30:01.655Z,99476.12
2018-03-03T18:32:30.013Z,99472.70
2018-03-03T18:34:58.340Z,99468.72
2018-03-03T18:37:26.782Z,99468.37
2018-03-03T18:39:55.194Z,99468.94
2018-03-03T18:42:23.528Z,99476.58
2018-03-03T18:44:51.856Z,99474.84
2018-03-03T18:47:20.210Z,99472.24
2018-03-03T18:49:48.577Z,99470.02
2018-03-03T18:52:16.935Z,99472.23
2018-03-03T18:54:45.273Z,99472.33
2018-03-03T18:57:13.629Z,99466.12
2018-03-03T18:59:41.958Z,99466.17
2018-03-03T19:02:10.362Z,99467.56
2018-03-03T19:04:38.694Z,99459.50
2018-03-03T19:07:07.990Z,99461.01
2018-03-03T19:09:36.406Z,99460.04
2018-03-03T19:12:04.855Z,99466.59
2018-03-03T19:14:33.261Z,99464.38
2018-03-03T19:17:01.621Z,99461.17
2018-03-03T19:19:29.955Z,99460.03
2018-03-03T19:21:58.299Z,99466.12
2018-03-03T19:24:26.773Z,99469.42
2018-03-03T19:26:55.201Z,99461.77
2018-03-03T19:29:23.526Z,99464.92
2018-03-03T19:31:51.881Z,99468.97
2018-03-03T19:34:20.207Z,99459.01
2018-03-03T19:36:48.550Z,99459.54
2018-03-03T19:39:16.891Z,99459.44
2018-03-03T19:41:45.327Z,99458.24
2018-03-03T19:44:13.642Z,99463.52
2018-03-03T19:46:42.005Z,99465.25
2018-03-03T19:49:10.334Z,99470.02
2018-03-03T19:51:38.719Z,99465.24
2018-03-03T19:54:07.100Z,99465.19
2018-03-03T19:56:35.469Z,99466.31
2018-03-03T19:59:03.873Z,99468.02
2018-03-03T20:01:32.210Z,99462.47
2018-03-03T20:04:00.550Z,99460.36
2018-03-03T20:06:29.336Z,99451.80
2018-03-03T20:08:58.022Z,99453.20
2018-03-03T20:11:26.911Z,99456.51
2018-03-03T20:13:55.698Z,99445.18
2018-03-03T20:16:24.587Z,99453.91
2018-03-03T20:18:53.373Z,99455.16
2018-03-03T20:21:22.160Z,99459.33
2018-03-03T20:23:51.973Z,99456.28
2018-03-03T20:26:20.764Z,99460.19
2018-03-03T20:28:49.646Z,99454.39
2018-03-03T20:31:18.433Z,99454.56
2018-03-03T20:33:47.323Z,99453.25
2018-03-03T20:36:16.211Z,99451.77
2018-03-03T20:38:45.100Z,99451.08
2018-03-03T20:41:14.093Z,99443.09
2018-03-03T20:43:42.982Z,99441.80
2018-03-03T20:46:11.845Z,99438.89
2018-03-03T20:48:40.760Z,99438.81
2018-03-03T20:51:09.546Z,99434.27
2018-03-03T20:53:38.436Z,99437.14
2018-03-03T20:56:08.247Z,99435.23
2018-03-03T20:58:36.824Z,99436.17
2018-03-03T21:01:05.150Z,99432.44
2018-03-03T21:03:33.501Z,99426.23
2018-03-03T21:06:01.834Z,99427.41
2018-03-03T21:08:30.187Z,99430.91
2018-03-03T21:10:58.518Z,99423.03
2018-03-03T21:13:26.867Z,99425.81
2018-03-03T21:15:55.195Z,99430.63
2018-03-03T21:18:24.215Z,99423.58
2018-03-03T21:20:52.596Z,99427.27
2018-03-03T21:23:20.944Z,99424.90
2018-03-03T21:25:49.306Z,99411.02
2018-03-03T21:28:17.666Z,99415.63
2018-03-03T21:30:46.022Z,99416.11
2018-03-03T21:33:14.471Z,99413.33
2018-03-03T21:35:42.802Z,99413.27
2018-03-03T21:38:11.221Z,99417.84
2018-03-03T21:40:39.607Z,99415.78
2018-03-03T21:43:07.958Z,99418.55
2018-03-03T21:45:36.350Z,99418.17
2018-03-03T21:48:04.694Z,99421.80
2018-03-03T21:50:33.107Z,99417.69
2018-03-03T21:53:01.463Z,99431.80
2018-03-03T21:55:29.878Z,99429.73
2018-03-03T21:57:58.235Z,99429.92
2018-03-03T22:00:26.577Z,99439.53
2018-03-03T22:02:54.939Z,99439.11
2018-03-03T22:05:23.258Z,99440.66
2018-03-03T22:07:51.642Z,99436.88
2018-03-03T22:10:20.031Z,99450.00
2018-03-03T22:12:48.388Z,99440.08
2018-03-03T22:15:16.778Z,99439.64
2018-03-03T22:17:45.134Z,99445.34
2018-03-03T22:20:13.593Z,99441.80
2018-03-03T22:22:41.905Z,99442.14
2018-03-03T22:25:10.287Z,99442.58
2018-03-03T22:27:38.658Z,99446.47
2018-03-03T22:30:06.987Z,99451.31
2018-03-03T22:32:35.418Z,99457.21
2018-03-03T22:35:03.761Z,99458.14
2018-03-03T22:37:32.088Z,99453.80
2018-03-03T22:40:00.446Z,99446.04
2018-03-03T22:42:28.826Z,99457.48
2018-03-03T22:44:57.179Z,99451.13
2018-03-03T22:47:25.508Z,99449.45
2018-03-03T22:49:53.856Z,99448.86
2018-03-03T22:52:22.186Z,99443.27
2018-03-03T22:54:50.612Z,99441.59
2018-03-03T22:57:18.981Z,99437.36
2018-03-03T22:59:47.341Z,99430.31
2018-03-03T23:02:15.675Z,99431.28
2018-03-03T23:04:44.477Z,99438.62
2018-03-03T23:07:12.822Z,99445.22
2018-03-03T23:09:41.171Z,99437.16
2018-03-03T23:12:09.562Z,99437.05
2018-03-03T23:14:37.918Z,99432.77
2018-03-03T23:17:06.238Z,99439.42
2018-03-03T23:19:34.587Z,99437.53
2018-03-03T23:22:02.918Z,99436.66
2018-03-03T23:24:31.268Z,99429.56
2018-03-03T23:26:59.610Z,99424.90
2018-03-03T23:29:27.986Z,99423.85
2018-03-03T23:31:56.305Z,99420.61
2018-03-03T23:34:24.650Z,99420.29
2018-03-03T23:36:52.974Z,99420.33
2018-03-03T23:39:21.318Z,99426.41
2018-03-03T23:41:49.642Z,99424.56
2018-03-03T23:44:18.046Z,99417.30
2018-03-03T23:46:46.377Z,99418.20
2018-03-03T23:49:14.722Z,99418.11
2018-03-03T23:51:43.046Z,99415.90
2018-03-03T23:54:11.415Z,99411.28
2018-03-03T23:56:39.742Z,99413.77
2018-03-03T23:59:08.086Z,99413.16
